createdAt,value
2022-10-26T00:01:23.486Z,11.72
2022-10-26T00:03:50.100Z,11.27
2022-10-26T00:06:22.299Z,11.31
2022-10-26T00:08:48.713Z,11.49
2022-10-26T00:11:16.218Z,12.06
2022-10-26T00:13:42.963Z,12.27
2022-10-26T00:16:24.243Z,12.25
2022-10-26T00:18:50.763Z,12.14
2022-10-26T00:21:17.852Z,12.33
2022-10-26T00:23:44.460Z,12.28
2022-10-26T00:26:11.352Z,12.31
2022-10-26T00:28:37.827Z,12.35
2022-10-26T00:31:08.748Z,12.38
2022-10-26T00:33:35.939Z,12.39
2022-10-26T00:36:02.524Z,12.60
2022-10-26T00:38:28.924Z,12.51
2022-10-26T00:43:27.204Z,12.22
2022-10-26T00:45:56.077Z,12.35
2022-10-26T00:48:26.127Z,12.30
2022-10-26T00:50:54.096Z,12.33
2022-10-26T00:53:20.808Z,12.46
2022-10-26T00:55:50.991Z,12.37
2022-10-26T00:58:18.581Z,12.49
2022-10-26T01:00:45.208Z,12.46
2022-10-26T01:03:11.825Z,12.37
2022-10-26T01:05:42.040Z,12.28
2022-10-26T01:08:09.398Z,11.81
2022-10-26T01:10:37.823Z,12.00
2022-10-26T01:13:05.002Z,12.18
2022-10-26T01:15:56.552Z,12.29
2022-10-26T01:18:54.169Z,12.42
2022-10-26T01:21:33.679Z,12.50
2022-10-26T01:24:10.199Z,12.42
2022-10-26T01:27:05.214Z,12.54
2022-10-26T01:29:58.520Z,12.55
2022-10-26T01:32:28.753Z,12.52
2022-10-26T01:35:27.222Z,12.50
2022-10-26T01:38:19.644Z,12.52
2022-10-26T01:41:05.907Z,12.56
2022-10-26T01:43:36.591Z,12.52
2022-10-26T01:46:06.372Z,12.53
2022-10-26T01:48:34.317Z,12.54
2022-10-26T01:51:03.129Z,12.57
2022-10-26T01:53:30.269Z,12.57
2022-10-26T01:55:57.003Z,12.58
2022-10-26T01:59:01.174Z,12.43
2022-10-26T02:01:35.981Z,12.55
2022-10-26T02:04:21.063Z,12.49
2022-10-26T02:07:07.227Z,12.44
2022-10-26T02:09:48.751Z,12.46
2022-10-26T02:12:27.111Z,12.42
2022-10-26T02:15:31.516Z,12.37
2022-10-26T02:18:20.477Z,12.18
2022-10-26T02:20:53.879Z,12.33
2022-10-26T02:23:24.526Z,12.39
2022-10-26T02:25:57.129Z,12.49
2022-10-26T02:28:30.971Z,12.53
2022-10-26T02:30:59.581Z,12.52
2022-10-26T02:33:30.109Z,12.45
2022-10-26T02:36:00.798Z,12.33
2022-10-26T02:38:30.447Z,12.51
2022-10-26T02:40:58.054Z,12.55
2022-10-26T02:43:26.558Z,12.57
2022-10-26T02:45:57.996Z,12.60
2022-10-26T02:48:24.455Z,12.77
2022-10-26T02:50:56.515Z,12.74
2022-10-26T02:53:31.829Z,12.80
2022-10-26T02:56:03.791Z,12.76
2022-10-26T02:58:37.105Z,12.93
2022-10-26T03:01:04.096Z,12.96
2022-10-26T03:03:30.521Z,13.06
2022-10-26T03:05:56.848Z,12.79
2022-10-26T03:08:23.928Z,12.77
2022-10-26T03:10:50.361Z,12.78
2022-10-26T03:13:16.691Z,12.84
2022-10-26T03:15:43.033Z,12.75
2022-10-26T03:18:10.486Z,12.72
2022-10-26T03:20:36.878Z,12.72
2022-10-26T03:23:03.271Z,12.70
2022-10-26T03:25:29.699Z,12.63
2022-10-26T03:27:58.007Z,12.58
2022-10-26T03:30:24.491Z,12.44
2022-10-26T03:32:50.967Z,12.25
2022-10-26T03:35:17.455Z,12.28
2022-10-26T03:37:43.891Z,12.35
2022-10-26T03:40:10.966Z,12.46
2022-10-26T03:42:37.506Z,12.34
2022-10-26T03:45:04.661Z,12.40
2022-10-26T03:47:31.013Z,12.53
2022-10-26T03:49:57.368Z,12.53
2022-10-26T03:52:24.665Z,12.68
2022-10-26T03:54:51.946Z,12.68
2022-10-26T03:57:18.649Z,12.70
2022-10-26T03:59:45.075Z,12.73
2022-10-26T04:02:11.993Z,12.71
2022-10-26T04:04:38.422Z,12.76
2022-10-26T04:07:04.821Z,12.79
2022-10-26T04:09:31.169Z,12.88
2022-10-26T04:11:57.507Z,12.83
2022-10-26T04:14:23.966Z,12.81
2022-10-26T04:16:50.304Z,12.70
2022-10-26T04:19:16.727Z,12.62
2022-10-26T04:21:43.071Z,12.62
2022-10-26T04:24:10.966Z,12.63
2022-10-26T04:26:37.519Z,12.69
2022-10-26T04:29:06.744Z,12.59
2022-10-26T04:31:33.549Z,13.03
2022-10-26T04:33:59.898Z,12.83
2022-10-26T04:36:26.254Z,13.05
2022-10-26T04:38:52.606Z,12.72
2022-10-26T04:41:19.002Z,12.72
2022-10-26T04:43:45.346Z,12.70
2022-10-26T04:46:16.648Z,12.66
2022-10-26T04:48:43.347Z,12.59
2022-10-26T04:51:09.689Z,12.62
2022-10-26T04:53:36.069Z,12.62
2022-10-26T04:56:02.503Z,12.59
2022-10-26T04:58:29.272Z,12.58
2022-10-26T05:00:55.814Z,12.55
2022-10-26T05:03:22.361Z,12.26
2022-10-26T05:05:48.765Z,12.35
2022-10-26T05:08:15.858Z,12.44
2022-10-26T05:10:42.599Z,12.63
2022-10-26T05:13:09.648Z,12.66
2022-10-26T05:15:36.014Z,12.57
2022-10-26T05:18:05.382Z,12.57
2022-10-26T05:20:34.861Z,12.54
2022-10-26T05:23:04.245Z,12.64
2022-10-26T05:25:36.487Z,12.71
2022-10-26T05:28:05.521Z,12.55
2022-10-26T05:30:32.304Z,12.39
2022-10-26T05:33:02.223Z,12.33
2022-10-26T05:35:29.211Z,12.19
2022-10-26T05:37:55.561Z,12.25
2022-10-26T05:40:22.331Z,12.26
2022-10-26T05:42:48.956Z,12.27
2022-10-26T05:45:15.548Z,12.15
2022-10-26T05:47:43.111Z,12.29
2022-10-26T05:50:10.544Z,12.12
2022-10-26T05:52:41.414Z,12.12
2022-10-26T05:55:09.247Z,12.08
2022-10-26T05:57:36.872Z,12.17
2022-10-26T06:00:14.937Z,12.26
2022-10-26T06:02:50.511Z,12.34
2022-10-26T06:05:25.748Z,12.22
2022-10-26T06:07:52.608Z,12.54
2022-10-26T06:10:19.595Z,12.51
2022-10-26T06:12:46.432Z,12.72
2022-10-26T06:15:21.650Z,12.66
2022-10-26T06:18:04.332Z,12.57
2022-10-26T06:20:44.805Z,12.67
2022-10-26T06:23:40.177Z,12.58
2022-10-26T06:26:25.702Z,12.61
2022-10-26T06:29:21.876Z,12.60
2022-10-26T06:31:48.452Z,12.51
2022-10-26T06:34:39.334Z,12.39
2022-10-26T06:37:07.417Z,12.38
2022-10-26T06:39:38.756Z,12.38
2022-10-26T06:42:05.500Z,12.44
2022-10-26T06:44:33.368Z,12.48
2022-10-26T06:47:07.227Z,12.50
2022-10-26T06:50:09.507Z,12.53
2022-10-26T06:52:42.861Z,12.78
2022-10-26T06:55:16.237Z,12.90
2022-10-26T06:57:43.954Z,13.32
2022-10-26T07:00:25.191Z,13.31
2022-10-26T07:02:52.158Z,13.13
2022-10-26T07:05:18.827Z,13.01
2022-10-26T07:07:47.026Z,12.96
2022-10-26T07:10:14.915Z,12.93
2022-10-26T07:12:41.304Z,12.89
2022-10-26T07:15:11.978Z,12.87
2022-10-26T07:17:46.518Z,12.99
2022-10-26T07:20:13.929Z,13.02
2022-10-26T07:22:40.840Z,13.00
2022-10-26T07:25:08.049Z,13.04
2022-10-26T07:27:34.730Z,13.07
2022-10-26T07:30:01.792Z,13.03
2022-10-26T07:32:28.414Z,13.01
2022-10-26T07:34:54.782Z,13.13
2022-10-26T07:37:21.224Z,13.09
2022-10-26T07:39:47.664Z,13.16
2022-10-26T07:42:15.217Z,13.19
2022-10-26T07:44:41.570Z,13.23
2022-10-26T07:47:08.017Z,13.33
2022-10-26T07:49:34.596Z,13.33
2022-10-26T07:52:00.961Z,13.37
2022-10-26T07:54:27.346Z,13.39
2022-10-26T07:56:53.822Z,13.48
2022-10-26T07:59:20.201Z,13.39
2022-10-26T08:01:46.615Z,13.45
2022-10-26T08:04:12.986Z,13.46
2022-10-26T08:06:39.323Z,13.51
2022-10-26T08:09:05.795Z,13.59
2022-10-26T08:11:32.199Z,13.77
2022-10-26T08:13:58.613Z,13.96
2022-10-26T08:16:25.140Z,14.08
2022-10-26T08:18:51.817Z,13.72
2022-10-26T08:21:22.104Z,13.90
2022-10-26T08:23:56.737Z,14.01
2022-10-26T08:26:23.626Z,14.13
2022-10-26T08:28:50.262Z,14.35
2022-10-26T08:31:16.643Z,14.50
2022-10-26T08:33:45.016Z,14.66
2022-10-26T08:36:12.326Z,14.74
2022-10-26T08:38:38.682Z,14.81
2022-10-26T08:41:09.130Z,14.88
2022-10-26T08:44:07.685Z,14.90
2022-10-26T08:46:39.711Z,14.78
2022-10-26T08:49:30.262Z,14.95
2022-10-26T08:52:01.659Z,15.05
2022-10-26T08:54:44.987Z,15.11
2022-10-26T08:57:23.143Z,15.22
2022-10-26T09:00:06.501Z,15.26
2022-10-26T09:02:33.023Z,15.31
2022-10-26T09:05:00.271Z,15.32
2022-10-26T09:07:57.076Z,15.39
2022-10-26T09:10:49.167Z,15.42
2022-10-26T09:13:33.562Z,15.60
2022-10-26T09:16:21.209Z,15.42
2022-10-26T09:19:19.920Z,15.79
2022-10-26T09:21:55.303Z,15.74
2022-10-26T09:24:38.175Z,15.78
2022-10-26T09:27:26.154Z,15.88
2022-10-26T09:29:53.749Z,16.48
2022-10-26T09:32:24.350Z,16.12
2022-10-26T09:34:55.190Z,16.38
2022-10-26T09:37:27.543Z,16.35
2022-10-26T09:40:24.971Z,16.20
2022-10-26T09:42:58.059Z,16.46
2022-10-26T09:45:24.347Z,16.43
2022-10-26T09:47:53.764Z,16.69
2022-10-26T09:50:37.358Z,16.66
2022-10-26T09:53:04.062Z,16.64
2022-10-26T09:55:32.578Z,16.67
2022-10-26T09:58:04.322Z,16.76
2022-10-26T10:00:33.137Z,17.02
2022-10-26T10:02:59.650Z,17.22
2022-10-26T10:08:20.239Z,17.46
2022-10-26T10:11:03.598Z,17.32
2022-10-26T10:13:32.936Z,17.32
2022-10-26T10:16:13.794Z,17.32
2022-10-26T10:18:53.807Z,17.29
2022-10-26T10:21:20.322Z,17.40
2022-10-26T10:23:54.497Z,17.41
2022-10-26T10:26:21.008Z,17.30
2022-10-26T10:29:01.300Z,17.31
2022-10-26T10:31:30.277Z,17.47
2022-10-26T10:33:56.790Z,17.63
2022-10-26T10:36:26.346Z,17.52
2022-10-26T10:38:54.098Z,17.60
2022-10-26T10:41:36.418Z,17.76
2022-10-26T10:44:14.639Z,18.24
2022-10-26T10:46:41.040Z,17.98
2022-10-26T10:49:20.095Z,18.00
2022-10-26T10:51:48.188Z,17.97
2022-10-26T10:54:37.381Z,17.99
2022-10-26T10:57:22.217Z,17.95
2022-10-26T10:59:54.655Z,17.96
2022-10-26T11:02:30.357Z,18.06
2022-10-26T11:05:28.549Z,17.92
2022-10-26T11:08:03.019Z,18.13
2022-10-26T11:10:36.084Z,18.29
2022-10-26T11:13:13.423Z,18.34
2022-10-26T11:15:42.335Z,18.33
2022-10-26T11:18:22.193Z,18.28
2022-10-26T11:23:48.680Z,18.00
2022-10-26T11:26:26.955Z,17.96
2022-10-26T11:29:06.444Z,18.15
2022-10-26T11:31:44.053Z,18.32
2022-10-26T11:34:28.898Z,18.40
2022-10-26T11:37:30.104Z,18.71
2022-10-26T11:40:03.104Z,18.79
2022-10-26T11:42:48.398Z,18.97
2022-10-26T11:45:25.936Z,19.42
2022-10-26T11:48:04.811Z,19.44
2022-10-26T11:50:39.893Z,19.55
2022-10-26T11:53:14.868Z,19.76
2022-10-26T11:55:42.245Z,19.91
2022-10-26T11:58:11.750Z,20.27
2022-10-26T12:00:49.225Z,20.39
2022-10-26T12:03:21.799Z,20.53
2022-10-26T12:05:51.964Z,20.70
2022-10-26T12:08:40.627Z,20.99
2022-10-26T12:11:21.125Z,20.93
2022-10-26T12:13:52.686Z,21.16
2022-10-26T12:16:38.377Z,21.29
2022-10-26T12:19:13.276Z,21.33
2022-10-26T12:21:42.260Z,21.17
2022-10-26T12:24:23.805Z,21.28
2022-10-26T12:26:55.831Z,21.55
2022-10-26T12:29:28.893Z,21.34
2022-10-26T12:31:55.929Z,21.37
2022-10-26T12:34:29.563Z,21.34
2022-10-26T12:36:55.906Z,21.54
2022-10-26T12:39:40.392Z,21.53
2022-10-26T12:42:09.926Z,21.55
2022-10-26T12:45:00.153Z,21.48
2022-10-26T12:47:29.698Z,21.59
2022-10-26T12:50:02.284Z,21.74
2022-10-26T12:52:55.061Z,21.69
2022-10-26T12:55:38.444Z,21.78
2022-10-26T12:58:26.170Z,21.82
2022-10-26T13:00:58.578Z,21.66
2022-10-26T13:03:56.645Z,21.79
2022-10-26T13:06:58.302Z,21.63
2022-10-26T13:09:29.142Z,21.75
2022-10-26T13:11:57.865Z,21.82
2022-10-26T13:14:28.022Z,21.94
2022-10-26T13:16:55.003Z,21.94
2022-10-26T13:19:26.098Z,21.99
2022-10-26T13:21:53.221Z,22.01
2022-10-26T13:24:24.052Z,21.86
2022-10-26T13:27:05.638Z,21.96
2022-10-26T13:29:33.041Z,21.95
2022-10-26T13:32:00.144Z,21.94
2022-10-26T13:34:31.379Z,21.80
2022-10-26T13:37:15.804Z,21.83
2022-10-26T13:39:48.559Z,21.94
2022-10-26T13:42:27.927Z,22.04
2022-10-26T13:44:56.089Z,21.88
2022-10-26T13:47:43.205Z,22.08
2022-10-26T13:50:17.821Z,22.04
2022-10-26T13:52:52.110Z,22.23
2022-10-26T13:55:27.179Z,22.08
2022-10-26T13:58:09.886Z,22.18
2022-10-26T14:00:36.729Z,22.08
2022-10-26T14:03:14.072Z,22.16
2022-10-26T14:05:48.661Z,22.07
2022-10-26T14:08:19.305Z,22.10
2022-10-26T14:10:48.498Z,21.93
2022-10-26T14:13:21.232Z,22.01
2022-10-26T14:15:47.747Z,22.08
2022-10-26T14:18:19.217Z,22.08
2022-10-26T14:20:55.136Z,22.17
2022-10-26T14:23:37.853Z,22.23
2022-10-26T14:26:05.073Z,22.30
2022-10-26T14:28:38.713Z,22.08
2022-10-26T14:31:21.959Z,22.22
2022-10-26T14:33:48.431Z,22.25
2022-10-26T14:36:16.704Z,22.13
2022-10-26T14:38:49.848Z,22.01
2022-10-26T14:41:17.914Z,21.98
2022-10-26T14:43:45.805Z,21.89
2022-10-26T14:46:17.425Z,21.74
2022-10-26T14:48:52.602Z,21.87
2022-10-26T14:51:21.819Z,21.82
2022-10-26T14:53:51.244Z,21.82
2022-10-26T14:56:22.225Z,21.62
2022-10-26T14:58:48.821Z,21.64
2022-10-26T15:01:16.478Z,21.53
2022-10-26T15:03:48.473Z,21.57
2022-10-26T15:06:31.228Z,21.51
2022-10-26T15:08:59.813Z,21.58
2022-10-26T15:11:31.624Z,21.49
2022-10-26T15:13:58.657Z,21.62
2022-10-26T15:16:27.886Z,21.36
2022-10-26T15:18:58.446Z,21.33
2022-10-26T15:21:29.524Z,21.55
2022-10-26T15:23:57.764Z,21.25
2022-10-26T15:26:24.565Z,21.21
2022-10-26T15:28:52.765Z,21.07
2022-10-26T15:31:19.086Z,20.95
2022-10-26T15:33:51.537Z,20.91
2022-10-26T15:36:19.188Z,21.00
2022-10-26T15:38:48.103Z,20.94
2022-10-26T15:41:23.862Z,20.67
2022-10-26T15:43:53.286Z,20.64
2022-10-26T15:46:19.949Z,20.56
2022-10-26T15:48:54.628Z,20.57
2022-10-26T15:51:21.552Z,20.49
2022-10-26T15:53:48.350Z,20.35
2022-10-26T15:56:17.550Z,20.19
2022-10-26T15:58:44.152Z,20.18
2022-10-26T16:01:17.141Z,20.27
2022-10-26T16:03:44.318Z,20.11
2022-10-26T16:06:22.464Z,20.10
2022-10-26T16:08:51.665Z,19.98
2022-10-26T16:11:18.137Z,19.92
2022-10-26T16:13:44.720Z,19.77
2022-10-26T16:16:18.583Z,19.75
2022-10-26T16:18:45.850Z,19.63
2022-10-26T16:21:14.231Z,19.55
2022-10-26T16:23:41.180Z,19.50
2022-10-26T16:26:07.827Z,19.45
2022-10-26T16:28:34.936Z,19.37
2022-10-26T16:31:02.619Z,19.20
2022-10-26T16:33:29.061Z,18.93
2022-10-26T16:35:59.686Z,18.68
2022-10-26T16:38:26.876Z,18.34
2022-10-26T16:41:04.629Z,18.02
2022-10-26T16:43:41.912Z,17.82
2022-10-26T16:46:14.451Z,17.66
2022-10-26T16:48:42.577Z,17.58
2022-10-26T16:51:23.481Z,17.53
2022-10-26T16:53:54.559Z,17.39
2022-10-26T16:56:23.347Z,17.27
2022-10-26T16:58:50.155Z,17.14
2022-10-26T17:01:18.881Z,16.91
2022-10-26T17:03:50.463Z,16.75
2022-10-26T17:06:17.312Z,16.71
2022-10-26T17:08:44.015Z,16.59
2022-10-26T17:11:14.048Z,16.50
2022-10-26T17:13:40.841Z,16.54
2022-10-26T17:16:14.241Z,16.44
2022-10-26T17:18:41.775Z,16.32
2022-10-26T17:21:12.963Z,16.21
2022-10-26T17:23:39.344Z,15.98
2022-10-26T17:26:09.201Z,15.90
2022-10-26T17:28:36.178Z,15.77
2022-10-26T17:31:07.080Z,15.88
2022-10-26T17:33:38.240Z,16.04
2022-10-26T17:36:06.438Z,16.00
2022-10-26T17:38:34.979Z,15.97
2022-10-26T17:41:02.936Z,15.95
2022-10-26T17:43:31.091Z,15.65
2022-10-26T17:46:01.787Z,15.69
2022-10-26T17:48:30.385Z,15.54
2022-10-26T17:51:04.878Z,15.62
2022-10-26T17:53:31.763Z,15.38
2022-10-26T17:56:10.046Z,15.16
2022-10-26T17:58:36.779Z,15.03
2022-10-26T18:01:11.652Z,15.09
2022-10-26T18:03:38.571Z,14.86
2022-10-26T18:06:09.527Z,15.12
2022-10-26T18:08:37.648Z,15.32
2022-10-26T18:11:05.388Z,15.48
2022-10-26T18:13:33.972Z,15.67
2022-10-26T18:16:15.291Z,15.64
2022-10-26T18:18:46.385Z,15.70
2022-10-26T18:21:14.931Z,15.60
2022-10-26T18:23:41.286Z,15.44
2022-10-26T18:26:12.877Z,15.55
2022-10-26T18:28:40.464Z,15.43
2022-10-26T18:31:08.954Z,15.44
2022-10-26T18:33:35.831Z,15.21
2022-10-26T18:36:07.561Z,15.29
2022-10-26T18:38:34.764Z,15.21
2022-10-26T18:41:01.711Z,15.15
2022-10-26T18:43:29.388Z,15.25
2022-10-26T18:46:09.935Z,15.18
2022-10-26T18:48:36.930Z,15.08
2022-10-26T18:51:11.853Z,15.07
2022-10-26T18:53:39.781Z,15.35
2022-10-26T18:56:08.978Z,15.20
2022-10-26T18:58:38.052Z,15.17
2022-10-26T19:01:22.543Z,15.03
2022-10-26T19:03:57.214Z,14.95
2022-10-26T19:06:26.718Z,14.69
2022-10-26T19:08:53.476Z,14.62
2022-10-26T19:11:21.812Z,14.47
2022-10-26T19:13:50.152Z,14.75
2022-10-26T19:16:33.480Z,14.82
2022-10-26T19:19:08.914Z,14.76
2022-10-26T19:21:36.598Z,14.73
2022-10-26T19:24:03.231Z,14.69
2022-10-26T19:26:36.007Z,14.75
2022-10-26T19:29:06.667Z,14.77
2022-10-26T19:31:33.702Z,14.71
2022-10-26T19:34:01.485Z,14.67
2022-10-26T19:36:28.367Z,14.23
2022-10-26T19:38:55.720Z,14.19
2022-10-26T19:41:23.851Z,13.97
2022-10-26T19:43:50.924Z,13.98
2022-10-26T19:46:20.993Z,14.10
2022-10-26T19:48:53.065Z,14.10
2022-10-26T19:51:20.059Z,14.14
2022-10-26T19:53:46.728Z,14.08
2022-10-26T19:56:14.457Z,13.94
2022-10-26T19:58:42.246Z,13.89
2022-10-26T20:01:10.109Z,13.69
2022-10-26T20:03:37.275Z,13.82
2022-10-26T20:06:08.065Z,13.82
2022-10-26T20:08:38.300Z,14.07
2022-10-26T20:11:08.939Z,13.76
2022-10-26T20:13:38.946Z,13.49
2022-10-26T20:16:06.940Z,13.42
2022-10-26T20:18:33.567Z,13.38
2022-10-26T20:21:00.151Z,13.29
2022-10-26T20:23:26.627Z,13.17
2022-10-26T20:25:53.116Z,13.11
2022-10-26T20:28:20.115Z,13.10
2022-10-26T20:30:48.317Z,13.13
2022-10-26T20:33:14.673Z,12.98
2022-10-26T20:35:41.035Z,12.94
2022-10-26T20:38:15.268Z,12.96
2022-10-26T20:40:41.977Z,12.94
2022-10-26T20:43:10.107Z,12.91
2022-10-26T20:45:36.770Z,12.90
2022-10-26T20:48:03.380Z,12.83
2022-10-26T20:50:30.459Z,12.87
2022-10-26T20:53:17.480Z,12.80
2022-10-26T20:55:53.611Z,12.67
2022-10-26T20:58:43.709Z,12.68
2022-10-26T21:01:19.197Z,12.77
2022-10-26T21:03:45.643Z,12.79
2022-10-26T21:06:12.140Z,12.83
2022-10-26T21:08:38.460Z,12.76
2022-10-26T21:11:07.733Z,12.73
2022-10-26T21:13:34.095Z,12.66
2022-10-26T21:16:04.033Z,12.62
2022-10-26T21:18:32.035Z,12.66
2022-10-26T21:20:59.980Z,12.54
2022-10-26T21:23:31.050Z,12.49
2022-10-26T21:25:57.469Z,12.39
2022-10-26T21:28:23.900Z,12.39
2022-10-26T21:30:50.382Z,12.33
2022-10-26T21:33:18.894Z,12.22
2022-10-26T21:35:54.492Z,12.26
2022-10-26T21:38:20.895Z,12.21
2022-10-26T21:40:47.247Z,12.28
2022-10-26T21:43:13.644Z,12.27
2022-10-26T21:45:39.996Z,12.27
2022-10-26T21:48:06.368Z,12.24
2022-10-26T21:50:32.708Z,12.20
2022-10-26T21:52:59.052Z,12.21
2022-10-26T21:55:25.419Z,12.28
2022-10-26T21:57:53.305Z,12.23
2022-10-26T22:00:19.678Z,12.25
2022-10-26T22:02:46.050Z,12.15
2022-10-26T22:05:12.461Z,12.26
2022-10-26T22:07:38.867Z,12.31
2022-10-26T22:10:12.893Z,12.38
2022-10-26T22:12:39.257Z,12.40
2022-10-26T22:15:06.219Z,12.45
2022-10-26T22:17:36.006Z,12.41
2022-10-26T22:20:02.390Z,12.55
2022-10-26T22:22:29.416Z,12.51
2022-10-26T22:24:55.851Z,12.42
2022-10-26T22:27:22.190Z,12.34
2022-10-26T22:29:48.629Z,12.35
2022-10-26T22:32:14.973Z,12.43
2022-10-26T22:34:41.334Z,12.34
2022-10-26T22:37:07.691Z,12.41
2022-10-26T22:39:34.028Z,12.32
2022-10-26T22:42:00.370Z,12.54
2022-10-26T22:44:26.709Z,12.36
2022-10-26T22:46:53.025Z,12.50
2022-10-26T22:49:19.418Z,12.48
2022-10-26T22:51:46.067Z,12.36
2022-10-26T22:54:13.127Z,12.14
2022-10-26T22:56:39.475Z,12.11
2022-10-26T22:59:06.230Z,12.02
2022-10-26T23:01:37.811Z,12.08
2022-10-26T23:04:04.674Z,12.03
2022-10-26T23:06:31.956Z,11.97
2022-10-26T23:08:59.211Z,12.04
2022-10-26T23:11:27.306Z,12.03
2022-10-26T23:13:58.961Z,12.10
2022-10-26T23:16:26.128Z,12.07
2022-10-26T23:18:55.365Z,12.07
2022-10-26T23:21:24.146Z,11.95
2022-10-26T23:23:50.678Z,11.77
2022-10-26T23:26:20.984Z,11.87
2022-10-26T23:28:49.064Z,11.76
2022-10-26T23:31:20.724Z,11.84
2022-10-26T23:33:49.317Z,11.73
2022-10-26T23:36:15.737Z,11.71
2022-10-26T23:38:42.136Z,11.72
2022-10-26T23:41:10.830Z,11.68
2022-10-26T23:43:39.679Z,11.42
2022-10-26T23:46:06.017Z,11.42
2022-10-26T23:48:32.588Z,11.32
2022-10-26T23:50:58.956Z,11.41
2022-10-26T23:53:26.023Z,11.70
2022-10-26T23:55:52.555Z,11.90
2022-10-26T23:58:19.133Z,11.91
